Desert Springs, Nevada Weather observations

Data are for 10 minute period ending at time listed.
 Day   Time    Ave.   Ave.  Ave.  Vector   Max.   Total    Solar   
  of    of     Air    Rel.  Wind   Wind    Wind  Precip.   Rad.    
Year   Day     Temp.  Hum.  Speed  Dir.    Gust                    
2016   (PST)    F      %     mph   deg.    mph     in.     W/m2    
------------------------------------------------------------------- 
 182   19:00   85.0     9   19.0   302     29.0    4.33     191  
 182   20:00   79.0    12   13.0   276     27.0    4.33      37  
 182   21:00   74.0    16   11.0   271     20.0    4.33       0  
 182   22:00   72.0    18    6.0   263     14.0    4.33       0  
 182   23:00   73.0    17   10.0   229     15.0    4.33       0  
 183    0:00   72.0    16    4.0   245     17.0    4.33       0  
 183    1:00   70.0    17    7.0   241     13.0    4.33       0  
 183    2:00   69.0    19    5.0   248      8.0    4.33       0  
 183    3:00   69.0    23    6.0   232     10.0    4.33       0  
 183    4:00   67.0    26    7.0   241      9.0    4.33       0  
 183    5:00   66.0    28    6.0   225      9.0    4.33       1  
 183    6:00   68.0    26    3.0   246      7.0    4.33      64  
 183    7:00   71.0    25    2.0   274      5.0    4.33     248  
 183    8:00   77.0    21    4.0    31      9.0    4.33     430  
 183    9:00   81.0    17    5.0     9      9.0    4.33     608  
 183   10:00   84.0    15    3.0   356      9.0    4.33     698  
 183   11:00   87.0    14    5.0   347     12.0    4.33     896  
 183   12:00   90.0    13    3.0   319     12.0    4.33     970  
 183   13:00   90.0    13    4.0    16     13.0    4.33     989  
 183   14:00   92.0    12    9.0   308     18.0    4.33    1005  
 183   15:00   93.0    12   14.0   269     23.0    4.33     853  
 183   16:00   92.0    12   19.0   283     33.0    4.33     709  
 183   17:00   90.0    14   20.0   283     32.0    4.33     586  
 183   18:00   87.0    16   23.0   284     32.0    4.33     365  

Return to Desert Springs, Nevada graphs page.


Western Regional Climate Center,wrcc@dri.edu